Latest Weather Observations for Gove Airport

IDD60801

Issued at 4:02 pm CST Sunday 1 March 2015 (issued every 30 minutes, with the page automatically refreshed every 10 minutes)

About weather observations | Map of weather stations | Latest weather observations for NT | Other Formats
Station Details ID: 014508 Name: GOVE AIRPORT Lat: -12.27 Lon: 136.82 Height: 51.6 m
Data from the previous 72 hours. | See also: Recent months at Gove Airport
Date/Time
CST
Temp
°C
App
Temp
°C
Dew
Point
Rel
Hum
%
Delta-T
°C
Wind Press
QNH
hPa
Press
MSL
hPa
Rain
since 9 am
mm
Dir
 
Spd
km/h
Gust
km/h
Spd
kts
Gust
kts
01/03:29pm 26.6 31.2 25.3 93 0.9 WNW 11 13 6 7 1003.3 - 5.2
01/03:00pm 26.2 30.7 24.6 91 1.1 WSW 9 13 5 7 1003.8 1003.5 5.2
01/02:45pm 26.6 30.8 24.7 89 1.3 W 11 17 6 9 1003.8 - 5.2
01/02:30pm 26.7 31.3 24.7 89 1.4 W 9 13 5 7 1003.9 - 5.2
01/02:00pm 26.8 30.7 24.8 89 1.4 W 13 17 7 9 1004.3 - 5.2
01/01:31pm 26.7 31.3 24.8 89 1.3 W 9 13 5 7 1005.0 - 5.2
01/01:30pm 26.8 31.5 24.9 89 1.3 W 9 13 5 7 1005.0 - 5.2
01/01:00pm 26.6 30.8 24.1 86 1.7 SW 9 15 5 8 1005.5 - 5.0
01/12:30pm 26.5 31.7 25.1 92 1.0 SE 7 11 4 6 1005.9 - 5.0
01/12:00pm 26.5 31.4 25.2 92 0.9 SSW 9 13 5 7 1005.9 1005.6 5.0
01/11:42am 26.6 31.1 24.6 89 1.4 WSW 9 13 5 7 1005.7 - 4.6
01/11:28am 26.2 29.7 24.2 89 1.4 WSW 13 19 7 10 1006.0 - 4.6
01/11:15am 27.0 32.7 26.4 96 0.4 SSW 9 13 5 7 1006.5 - 3.2
01/11:00am 26.9 32.5 26.3 96 0.4 W 9 13 5 7 1006.4 - 2.6
01/10:48am 26.7 32.3 26.3 98 0.3 W 9 13 5 7 1006.4 - 2.6
01/10:30am 26.5 32.3 26.1 98 0.3 W 7 9 4 5 1006.3 - 2.4
01/10:26am 26.6 32.6 26.0 96 0.4 WSW 6 9 3 5 1006.4 - 2.0
01/10:00am 26.4 32.2 26.0 98 0.3 W 7 13 4 7 1006.5 - 1.8
01/09:39am 26.4 32.2 26.1 98 0.2 NW 7 11 4 6 1006.8 - 1.8
01/09:30am 26.4 32.2 26.0 98 0.3 WNW 7 11 4 6 1006.9 - 1.6
01/09:00am 26.3 31.9 25.7 96 0.4 W 7 - 4 - - 1006.4 2.0
01/08:59am 26.3 31.9 25.7 96 0.4 W 7 13 4 7 1006.7 - 1.6
01/08:30am 26.4 33.4 25.8 96 0.4 CALM 0 0 0 0 1006.9 - 0.6
01/08:00am 26.4 33.4 25.8 96 0.4 CALM 0 0 0 0 1006.8 - 0.2
01/07:30am 26.4 32.2 25.7 96 0.5 SSW 6 7 3 4 1006.3 - 0.0
01/07:00am 26.3 33.2 25.7 96 0.4 CALM 0 0 0 0 1006.1 - 0.0
01/06:30am 26.3 33.1 25.6 96 0.5 CALM 0 0 0 0 1005.7 - 0.0
01/05:30am 26.3 33.0 25.4 95 0.6 CALM 0 6 0 3 1004.9 - 0.0
01/05:00am 26.3 31.9 25.4 95 0.6 W 6 7 3 4 1004.2 - 0.0
01/04:30am 26.3 31.7 25.4 95 0.6 W 7 9 4 5 1004.1 - 0.0
01/04:00am 26.3 31.6 25.3 94 0.7 WSW 7 9 4 5 1004.1 - 0.0
01/03:30am 26.0 31.2 25.1 95 0.6 WSW 7 11 4 6 1004.3 - 0.0
01/03:00am 26.2 31.6 25.1 94 0.8 W 6 7 3 4 1004.8 1004.5 0.0
01/02:30am 26.3 31.6 25.2 94 0.8 W 7 11 4 6 1005.0 - 0.0
01/02:00am 26.2 31.4 25.1 94 0.8 WSW 7 11 4 6 1005.2 - 0.0
01/01:30am 25.7 30.7 24.8 95 0.6 W 7 9 4 5 1005.8 - 0.0
01/01:00am 24.9 29.8 24.3 96 0.4 WSW 6 7 3 4 1006.3 - 0.0
01/12:30am 24.9 29.8 24.3 96 0.4 SW 6 7 3 4 1006.1 - 0.0
01/12:00am 25.1 31.2 24.5 96 0.4 CALM 0 0 0 0 1006.4 1006.1 0.0
 
Date/Time
CST
Temp
°C
App
Temp
°C
Dew
Point
Rel
Hum
%
Delta-T
°C
Wind Press
QNH
hPa
Press
MSL
hPa
Rain
since 9 am
mm
Dir
 
Spd
km/h
Gust
km/h
Spd
kts
Gust
kts
28/11:30pm 25.0 30.3 24.4 96 0.4 SW 4 7 2 4 1006.8 - 0.0
28/11:00pm 25.0 29.7 24.3 96 0.5 SW 7 9 4 5 1007.0 - 0.0
28/10:30pm 25.2 31.3 24.5 96 0.5 CALM 0 0 0 0 1007.2 - 0.0
28/10:00pm 25.3 31.3 24.3 94 0.7 CALM 0 0 0 0 1006.4 - 0.0
28/09:30pm 25.7 31.8 24.5 93 0.8 CALM 0 0 0 0 1006.2 - 0.0
28/09:00pm 26.2 32.4 24.6 91 1.1 CALM 0 0 0 0 1006.2 1005.9 0.0
28/08:30pm 26.8 32.6 24.6 88 1.5 NW 2 7 1 4 1006.1 - 0.0
28/07:30pm 27.8 34.4 25.2 86 1.8 CALM 0 0 0 0 1005.5 - 0.0
28/07:00pm 28.6 33.5 24.4 78 2.9 E 6 11 3 6 1005.2 - 0.0
28/06:30pm 28.9 33.5 24.8 78 2.9 ENE 9 11 5 6 1005.1 - 0.0
28/05:30pm 29.6 33.9 24.3 73 3.7 ENE 9 13 5 7 1004.8 - 0.0
28/05:00pm 29.5 33.2 24.5 74 3.5 ENE 13 17 7 9 1004.5 - 0.0
28/04:30pm 30.0 32.8 23.7 69 4.4 ENE 15 20 8 11 1004.2 - 0.0
28/04:00pm 30.1 33.2 24.1 70 4.2 ENE 15 20 8 11 1004.2 - 0.0
28/03:30pm 30.5 33.8 24.5 70 4.2 ENE 15 19 8 10 1004.0 - 0.0
28/03:00pm 31.0 33.6 24.6 68 4.5 NNE 19 22 10 12 1004.2 1003.9 0.0
28/02:30pm 32.6 35.5 22.4 55 7.0 NW 11 17 6 9 1004.6 - 0.0
28/02:00pm 32.2 36.0 22.8 57 6.5 WNW 7 11 4 6 1004.9 - 0.0
28/01:30pm 31.3 35.2 22.5 59 6.0 SW 6 11 3 6 1005.4 - 0.0
28/01:00pm 31.5 35.1 22.3 58 6.3 SW 7 11 4 6 1005.9 - 0.0
28/12:30pm 31.2 34.7 22.1 58 6.2 SW 7 13 4 7 1006.1 - 0.0
28/12:00pm 31.3 34.2 21.7 56 6.5 WSW 9 15 5 8 1006.9 1006.6 0.0
28/11:30am 30.8 33.3 21.8 58 6.1 SW 11 17 6 9 1007.3 - 0.0
28/11:00am 30.9 33.2 22.1 59 6.0 SW 13 22 7 12 1007.5 - 0.0
28/10:30am 30.2 32.4 21.9 61 5.6 W 13 20 7 11 1007.7 - 0.0
28/10:00am 30.0 32.6 22.7 65 5.0 SW 13 20 7 11 1007.7 - 0.0
28/09:30am 29.2 32.1 23.1 69 4.2 W 13 20 7 11 1007.3 - 0.0
28/09:00am 28.6 31.3 23.4 73 3.6 W 15 22 8 12 1007.4 1007.1 0.0
28/08:30am 27.8 31.2 24.0 80 2.6 W 13 19 7 10 1007.2 - 0.0
28/08:00am 26.7 30.2 24.2 86 1.7 W 13 20 7 11 1006.9 - 0.0
28/07:30am 25.9 30.2 24.2 90 1.2 W 9 13 5 7 1006.5 - 0.0
28/07:00am 25.1 29.5 23.8 92 0.9 W 7 11 4 6 1006.3 - 0.0
28/06:30am 24.9 29.2 23.6 92 0.9 W 7 11 4 6 1006.4 - 0.0
28/06:00am 24.7 28.9 23.4 92 0.9 W 7 9 4 5 1006.2 1005.9 0.0
28/05:30am 24.5 28.6 23.3 93 0.8 W 7 9 4 5 1005.8 - 0.0
28/05:00am 24.3 28.4 23.3 94 0.7 W 7 9 4 5 1006.0 - 0.0
28/04:30am 24.0 28.3 23.3 96 0.5 WNW 6 7 3 4 1005.9 - 0.0
28/04:00am 24.0 28.3 23.3 96 0.5 WNW 6 9 3 5 1005.5 - 0.0
28/03:30am 24.0 28.0 23.1 95 0.6 WNW 7 9 4 5 1005.2 - 0.0
28/03:00am 24.0 28.1 23.0 94 0.7 W 6 7 3 4 1005.5 1005.2 0.0
28/02:30am 24.0 27.8 22.7 92 0.9 WSW 7 9 4 5 1005.7 - 0.0
28/02:00am 24.0 27.8 22.7 92 0.9 WSW 7 9 4 5 1006.0 - 0.0
28/01:30am 24.4 28.1 22.6 90 1.2 W 7 9 4 5 1006.2 - 0.0
28/01:00am 24.4 28.1 22.6 90 1.2 WSW 7 9 4 5 1006.5 - 0.0
28/12:30am 24.7 28.9 23.1 91 1.1 WSW 6 7 3 4 1007.0 - 0.0
28/12:00am 25.2 29.2 23.1 88 1.4 W 7 9 4 5 1007.5 1007.2 0.0
 
Date/Time
CST
Temp
°C
App
Temp
°C
Dew
Point
Rel
Hum
%
Delta-T
°C
Wind Press
QNH
hPa
Press
MSL
hPa
Rain
since 9 am
mm
Dir
 
Spd
km/h
Gust
km/h
Spd
kts
Gust
kts
27/11:30pm 25.7 29.0 23.2 86 1.7 WNW 11 15 6 8 1007.9 - 0.0
27/11:00pm 26.1 30.0 24.2 89 1.3 W 11 17 6 9 1008.1 - 0.0
27/10:30pm 26.7 30.9 24.7 89 1.4 WNW 11 17 6 9 1008.3 - 0.0
27/10:00pm 26.1 30.2 24.5 91 1.1 WNW 11 15 6 8 1008.0 - 0.0
27/09:30pm 25.4 29.9 23.6 90 1.2 WNW 6 7 3 4 1007.9 - 0.0
27/09:00pm 25.6 31.2 23.6 89 1.4 CALM 0 0 0 0 1007.3 1007.0 0.0
27/08:30pm 25.7 29.6 22.9 84 1.9 W 7 9 4 5 1006.9 - 0.0
27/08:00pm 25.4 29.5 23.3 88 1.4 W 7 9 4 5 1006.7 - 0.0
27/07:30pm 25.8 31.6 23.9 89 1.3 CALM 0 6 0 3 1006.4 - 0.0
27/07:00pm 26.2 31.8 23.6 85 1.8 CALM 0 6 0 3 1005.8 - 0.0
27/06:30pm 26.5 30.2 23.3 82 2.2 W 9 13 5 7 1005.8 - 0.0
27/06:00pm 27.2 31.2 23.1 78 2.8 WNW 7 11 4 6 1005.7 1005.4 0.0
27/05:30pm 27.9 31.7 24.0 79 2.7 NW 11 17 6 9 1004.8 - 0.0
27/05:00pm 29.7 33.3 24.4 73 3.7 NNW 13 20 7 11 1004.7 - 0.0
27/04:30pm 28.7 34.3 25.4 82 2.3 WNW 6 9 3 5 1004.8 - 0.0
27/04:00pm 29.4 33.8 25.6 80 2.7 N 13 19 7 10 1004.6 - 0.0
27/03:30pm 30.5 33.7 23.7 67 4.7 NE 13 20 7 11 1004.5 - 0.0
27/03:00pm 31.0 33.7 24.1 66 4.8 E 17 22 9 12 1004.7 1004.4 0.0
27/02:30pm 30.9 35.0 24.5 68 4.5 NNE 11 17 6 9 1004.7 - 0.0
27/02:00pm 31.1 34.1 24.7 68 4.5 E 17 24 9 13 1004.9 - 0.0
27/01:30pm 31.5 35.7 24.7 67 4.8 ENE 11 19 6 10 1005.1 - 0.0
27/01:00pm 33.2 35.9 22.8 54 7.2 NNW 13 24 7 13 1005.5 - 0.0
27/12:30pm 33.2 35.9 22.9 54 7.1 WNW 13 24 7 13 1006.1 - 0.0
27/12:00pm 32.5 35.7 22.3 55 7.0 SSW 9 15 5 8 1006.8 1006.5 0.0
27/11:30am 32.6 35.6 22.7 56 6.8 SSW 11 19 6 10 1007.0 - 0.0
27/11:00am 31.8 34.2 22.3 57 6.5 WSW 13 20 7 11 1007.1 - 0.0
27/10:30am 31.3 33.4 22.5 59 6.0 WSW 15 22 8 12 1007.3 - 0.0
27/10:00am 30.9 34.3 23.4 64 5.2 SW 11 17 6 9 1007.7 - 0.0
27/09:30am 30.2 34.1 24.8 73 3.8 SW 13 19 7 10 1008.0 - 0.0
27/09:00am 29.5 33.7 25.3 78 3.0 WSW 13 20 7 11 1008.1 1007.8 7.2
27/08:30am 28.3 33.0 25.6 85 1.9 W 11 17 6 9 1008.0 - 7.2
27/08:00am 27.7 32.5 25.7 89 1.4 W 11 15 6 8 1007.7 - 7.2
27/07:30am 26.4 33.2 25.5 95 0.6 CALM 0 0 0 0 1007.1 - 7.2
27/07:00am 25.7 31.1 25.1 96 0.4 W 6 7 3 4 1006.6 - 7.2
27/06:30am 24.7 30.8 24.4 98 0.2 CALM 0 0 0 0 1006.2 - 7.2
27/06:00am 25.0 31.0 24.3 96 0.5 CALM 0 0 0 0 1006.0 1005.7 7.2
27/05:30am 25.1 30.0 24.4 96 0.5 W 6 6 3 3 1005.9 - 7.2
27/05:00am 25.5 30.3 24.5 94 0.7 WNW 7 9 4 5 1005.8 - 7.2
27/04:30am 25.4 30.2 24.5 95 0.6 WNW 7 9 4 5 1005.9 - 7.2
27/04:00am 25.5 30.6 24.6 95 0.6 W 6 7 3 4 1005.7 - 7.2
27/03:30am 25.8 30.6 24.5 92 0.9 W 7 9 4 5 1005.8 - 7.2
27/03:00am 25.8 30.9 24.6 93 0.8 W 6 9 3 5 1006.2 1005.9 7.2
27/02:30am 25.7 30.5 24.5 93 0.8 WNW 7 9 4 5 1006.3 - 7.2
27/02:00am 25.8 30.6 24.4 92 1.0 NW 7 11 4 6 1006.5 - 7.2
27/01:30am 25.7 30.4 24.3 92 1.0 WNW 7 9 4 5 1006.6 - 7.2
27/01:00am 25.7 30.1 23.8 89 1.3 W 7 11 4 6 1006.8 - 7.2
27/12:30am 25.8 29.6 23.5 87 1.6 WNW 9 11 5 6 1007.1 - 7.2
27/12:00am 25.5 29.8 23.6 89 1.3 WNW 7 9 4 5 1007.2 1006.9 7.2
 
Date/Time
CST
Temp
°C
App
Temp
°C
Dew
Point
Rel
Hum
%
Delta-T
°C
Wind Press
QNH
hPa
Press
MSL
hPa
Rain
since 9 am
mm
Dir
 
Spd
km/h
Gust
km/h
Spd
kts
Gust
kts
26/11:30pm 25.1 29.8 23.9 93 0.8 W 6 7 3 4 1007.5 - 7.2
26/11:00pm 25.0 30.8 24.0 94 0.7 CALM 0 4 0 2 1007.5 - 7.2
26/10:30pm 25.0 30.1 24.1 95 0.6 W 4 6 2 3 1007.7 - 7.2
26/10:00pm 25.0 30.6 24.3 96 0.5 W 2 7 1 4 1007.5 - 7.2
26/09:30pm 25.3 30.4 24.6 96 0.5 WSW 6 7 3 4 1007.4 - 7.2
26/09:00pm 25.5 31.0 24.6 95 0.6 SW 4 6 2 3 1007.2 1006.9 7.2
26/08:30pm 25.8 30.6 24.5 92 0.9 WSW 7 7 4 4 1007.1 - 7.2
26/08:00pm 25.8 32.0 24.6 93 0.8 CALM 0 0 0 0 1006.8 - 7.2
26/07:30pm 26.4 31.4 24.5 89 1.3 WNW 6 7 3 4 1005.9 - 7.2
26/07:00pm 27.0 31.9 24.4 86 1.8 W 6 7 3 4 1005.6 - 7.2
26/06:30pm 27.4 32.0 24.1 82 2.3 SSW 7 11 4 6 1004.9 - 7.2
26/06:00pm 27.7 32.1 24.4 82 2.3 S 9 15 5 8 1004.3 1004.0 7.2
26/05:30pm 28.4 32.4 24.4 79 2.8 S 11 17 6 9 1004.3 - 7.2
26/05:00pm 29.1 32.7 24.4 76 3.3 S 13 17 7 9 1004.2 - 7.2
26/04:30pm 29.3 32.9 23.8 72 3.8 S 11 15 6 8 1004.4 - 7.2

Other Formats:

Comma delimited format used in spreadsheet applications
http://www.bom.gov.au/fwo/IDD60801/IDD60801.94150.axf

JavaScript Object Notation format (JSON) in row-major order
http://www.bom.gov.au/fwo/IDD60801/IDD60801.94150.json